| time (UTC) | temp C | wind direction | speed KPH | gust KPH | rain 1hr cm | rain 24hr cm | rain mn cm | humidity % | barometer mb |
| 20260507081519 | 8 | 360 | 0.0 | 8.0 | 0.00 | 0.89 | 0.00 | 95 | 1005.0 |
| 20260507080016 | 8 | 360 | 1.6 | 8.0 | 0.00 | 0.89 | 0.00 | 95 | 1004.6 |
| 20260507074515 | 8 | 360 | 1.6 | 14.5 | 0.00 | 0.89 | 0.00 | 95 | 1004.2 |
| 20260507073012 | 8 | 360 | 1.6 | 9.7 | 0.00 | 0.89 | 0.00 | 95 | 1004.3 |
| 20260507071508 | 8 | 360 | 0.0 | 4.8 | 0.00 | 0.89 | 0.00 | 96 | 1004.3 |
| 20260507070011 | 8 | 360 | 3.2 | 11.3 | 0.00 | 0.89 | 0.00 | 96 | 1004.2 |
| 20260507064506 | 8 | 360 | 1.6 | 11.3 | 0.00 | 0.89 | 0.00 | 97 | 1003.9 |
| 20260507063005 | 8 | 360 | 0.0 | 6.4 | 0.00 | 0.89 | 0.00 | 97 | 1003.7 |
| 20260507061603 | 8 | 360 | 3.2 | 8.0 | 0.00 | 0.89 | 0.00 | 97 | 1004.1 |
| 20260507060104 | 9 | 360 | 0.0 | 8.0 | 0.00 | 0.89 | 0.00 | 97 | 1003.8 |
| 20260507054615 | 9 | 360 | 0.0 | 8.0 | 0.00 | 0.89 | 0.00 | 97 | 1003.6 |
| 20260507053107 | 9 | 360 | 3.2 | 14.5 | 0.00 | 0.89 | 0.00 | 97 | 1003.7 |
| 20260507051558 | 9 | 360 | 3.2 | 8.0 | 0.00 | 0.89 | 0.00 | 97 | 1003.6 |
| 20260507050056 | 10 | 360 | 3.2 | 12.9 | 0.00 | 0.89 | 0.00 | 97 | 1003.6 |
| 20260507044556 | 10 | 360 | 1.6 | 12.9 | 0.03 | 0.89 | 0.00 | 97 | 1003.7 |
| 20260507043046 | 10 | 360 | 3.2 | 11.3 | 0.08 | 0.89 | 0.00 | 97 | 1003.5 |
| 20260507041557 | 11 | 360 | 0.0 | 9.7 | 0.08 | 0.89 | 0.00 | 97 | 1003.1 |
| 20260507040043 | 11 | 360 | 1.6 | 11.3 | 0.08 | 0.89 | 0.00 | 97 | 1003.3 |
| 20260507034539 | 11 | 360 | 1.6 | 11.3 | 0.08 | 0.86 | 0.36 | 97 | 1003.3 |
| 20260507033038 | 11 | 360 | 4.8 | 12.9 | 0.03 | 0.81 | 0.30 | 97 | 1003.3 |
| 20260507031537 | 12 | 360 | 3.2 | 19.3 | 0.05 | 0.81 | 0.30 | 98 | 1003.2 |
| 20260507030031 | 12 | 360 | 3.2 | 12.9 | 0.08 | 0.81 | 0.30 | 98 | 1002.8 |
| 20260507024533 | 13 | 360 | 4.8 | 14.5 | 0.05 | 0.79 | 0.28 | 98 | 1002.7 |
| 20260507023023 | 14 | 258 | 1.6 | 11.3 | 0.05 | 0.79 | 0.28 | 98 | 1002.7 |
| 20260507021530 | 14 | 239 | 4.8 | 12.9 | 0.03 | 0.76 | 0.25 | 98 | 1002.7 |
| 20260507020023 | 14 | 233 | 4.8 | 17.7 | 0.00 | 0.71 | 0.23 | 98 | 1002.7 |
| 20260507014523 | 14 | 231 | 6.4 | 14.5 | 0.00 | 0.71 | 0.23 | 98 | 1002.8 |
| 20260507013022 | 14 | 230 | 6.4 | 19.3 | 0.00 | 0.71 | 0.23 | 98 | 1002.7 |
| 20260507011523 | 15 | 224 | 6.4 | 14.5 | 0.00 | 0.71 | 0.23 | 98 | 1002.8 |
| 20260507010119 | 15 | 251 | 8.0 | 17.7 | 0.00 | 0.71 | 0.23 | 98 | 1002.7 |
| 20260507004518 | 15 | 246 | 9.7 | 27.4 | 0.00 | 0.71 | 0.23 | 98 | 1002.8 |
| 20260507003016 | 15 | 232 | 8.0 | 16.1 | 0.00 | 0.71 | 0.23 | 98 | 1002.8 |
| 20260507001516 | 15 | 223 | 8.0 | 19.3 | 0.00 | 0.71 | 0.23 | 98 | 1002.7 |
| 20260507000022 | 15 | 225 | 8.0 | 19.3 | 0.00 | 0.71 | 0.23 | 98 | 1002.6 |
| 20260506234514 | 15 | 193 | 8.0 | 22.5 | 0.00 | 0.71 | 0.23 | 98 | 1002.7 |
| 20260506233014 | 15 | 232 | 8.0 | 30.6 | 0.00 | 0.71 | 0.23 | 98 | 1002.8 |
| 20260506231516 | 15 | 227 | 9.7 | 19.3 | 0.00 | 0.71 | 0.23 | 98 | 1002.7 |
| 20260506230010 | 15 | 188 | 8.0 | 22.5 | 0.00 | 0.71 | 0.23 | 98 | 1002.7 |
| 20260506224509 | 15 | 201 | 8.0 | 17.7 | 0.00 | 0.71 | 0.23 | 98 | 1002.9 |
| 20260506223006 | 15 | 173 | 8.0 | 22.5 | 0.03 | 0.71 | 0.23 | 98 | 1003.0 |
| 20260506221506 | 15 | 182 | 9.7 | 27.4 | 0.03 | 0.71 | 0.23 | 98 | 1003.1 |
| 20260506220004 | 15 | 210 | 9.7 | 24.1 | 0.05 | 0.71 | 0.23 | 98 | 1003.1 |
| 20260506214601 | 15 | 206 | 4.8 | 12.9 | 0.08 | 0.71 | 0.23 | 98 | 1003.4 |
| 20260506213101 | 15 | 197 | 4.8 | 20.9 | 0.08 | 0.71 | 0.20 | 98 | 1003.4 |
| 20260506211557 | 15 | 204 | 9.7 | 16.1 | 0.13 | 0.71 | 0.20 | 98 | 1003.5 |
| 20260506210055 | 15 | 207 | 4.8 | 11.3 | 0.15 | 0.69 | 0.18 | 97 | 1003.7 |
| 20260506204553 | 15 | 142 | 4.8 | 12.9 | 0.15 | 0.66 | 0.15 | 98 | 1003.8 |
| 20260506203052 | 15 | 202 | 1.6 | 8.0 | 0.13 | 0.64 | 0.13 | 97 | 1003.9 |
| 20260506201550 | 16 | 186 | 1.6 | 6.4 | 0.08 | 0.58 | 0.08 | 97 | 1003.9 |
| 20260506200047 | 16 | 198 | 0.0 | 4.8 | 0.03 | 0.53 | 0.03 | 97 | 1003.7 |
| 20260506193006 | 16 | 216 | 1.6 | 9.7 | 0.33 | 0.71 | 0.71 | 96 | 1004.1 |
| 20260506191505 | 16 | 201 | 4.8 | 14.5 | 0.51 | 0.69 | 0.69 | 96 | 1004.4 |
| 20260506190005 | 16 | 220 | 1.6 | 11.3 | 0.48 | 0.51 | 0.51 | 95 | 1004.6 |
| 20260506184504 | 16 | 225 | 4.8 | 16.1 | 0.41 | 0.41 | 0.41 | 94 | 1004.5 |
| 20260506183003 | 16 | 257 | 8.0 | 17.7 | 0.36 | 0.36 | 0.36 | 93 | 1004.9 |
| 20260506181608 | 17 | 360 | 4.8 | 12.9 | 0.18 | 0.18 | 0.18 | 88 | 1004.8 |
| 20260506180059 | 18 | 198 | 3.2 | 12.9 | 0.03 | 0.03 | 0.03 | 78 | 1004.5 |
| 20260506174558 | 20 | 360 | 4.8 | 12.9 | 0.00 | 0.00 | 0.00 | 70 | 1004.1 |
| 20260506173126 | 20 | 215 | 8.0 | 22.5 | 0.00 | 0.00 | 0.00 | 67 | 1004.2 |
| 20260506171558 | 20 | 239 | 8.0 | 17.7 | 0.00 | 0.00 | 0.00 | 69 | 1004.2 |
| 20260506170106 | 20 | 219 | 8.0 | 17.7 | 0.00 | 0.00 | 0.00 | 69 | 1004.5 |
| 20260506164552 | 20 | 215 | 8.0 | 12.9 | 0.00 | 0.00 | 0.00 | 70 | 1004.8 |
| 20260506163055 | 20 | 247 | 6.4 | 20.9 | 0.00 | 0.00 | 0.00 | 71 | 1005.1 |
| 20260506161546 | 20 | 190 | 8.0 | 16.1 | 0.00 | 0.00 | 0.00 | 72 | 1005.5 |
| 20260506160044 | 19 | 217 | 6.4 | 24.1 | 0.00 | 0.00 | 0.00 | 73 | 1006.0 |
| 20260506154603 | 19 | 197 | 8.0 | 24.1 | 0.00 | 0.00 | 0.00 | 73 | 1006.2 |
| 20260506153039 | 19 | 221 | 9.7 | 16.1 | 0.00 | 0.00 | 0.00 | 74 | 1006.5 |
| 20260506151539 | 19 | 238 | 9.7 | 19.3 | 0.00 | 0.00 | 0.00 | 74 | 1006.2 |
| 20260506150039 | 18 | 215 | 6.4 | 14.5 | 0.00 | 0.00 | 0.00 | 75 | 1006.5 |
| 20260506144542 | 18 | 190 | 4.8 | 11.3 | 0.00 | 0.00 | 0.00 | 77 | 1006.3 |
| 20260506143034 | 18 | 211 | 8.0 | 16.1 | 0.00 | 0.00 | 0.00 | 78 | 1006.4 |
| 20260506141531 | 18 | 186 | 6.4 | 14.5 | 0.00 | 0.00 | 0.00 | 78 | 1006.2 |
| 20260506140033 | 17 | 360 | 4.8 | 9.7 | 0.00 | 0.00 | 0.00 | 80 | 1006.3 |
| 20260506134528 | 17 | 240 | 6.4 | 12.9 | 0.00 | 0.00 | 0.00 | 80 | 1006.6 |
| 20260506133034 | 17 | 218 | 3.2 | 11.3 | 0.00 | 0.00 | 0.00 | 81 | 1006.7 |
| 20260506131526 | 17 | 235 | 4.8 | 11.3 | 0.00 | 0.00 | 0.00 | 81 | 1006.7 |
| 20260506130025 | 17 | 223 | 6.4 | 12.9 | 0.00 | 0.00 | 0.00 | 81 | 1006.7 |
| 20260506124525 | 16 | 221 | 6.4 | 16.1 | 0.00 | 0.00 | 0.00 | 82 | 1006.6 |
| 20260506123025 | 16 | 193 | 6.4 | 16.1 | 0.00 | 0.00 | 0.00 | 81 | 1006.8 |
| 20260506121524 | 16 | 360 | 4.8 | 12.9 | 0.00 | 0.00 | 0.00 | 82 | 1006.7 |
| 20260506120024 | 16 | 244 | 6.4 | 14.5 | 0.00 | 0.00 | 0.00 | 83 | 1007.1 |
| 20260506114526 | 15 | 215 | 4.8 | 19.3 | 0.00 | 0.00 | 0.00 | 84 | 1007.1 |
| 20260506113023 | 15 | 231 | 3.2 | 11.3 | 0.00 | 0.00 | 0.00 | 85 | 1007.3 |
| 20260506111521 | 15 | 245 | 3.2 | 11.3 | 0.00 | 0.00 | 0.00 | 85 | 1007.5 |
| 20260506110021 | 15 | 360 | 4.8 | 16.1 | 0.00 | 0.00 | 0.00 | 85 | 1007.1 |
| 20260506104541 | 15 | 360 | 4.8 | 9.7 | 0.00 | 0.00 | 0.00 | 85 | 1007.2 |
| 20260506103019 | 14 | 227 | 4.8 | 11.3 | 0.00 | 0.00 | 0.00 | 84 | 1007.3 |
| 20260506101517 | 15 | 212 | 6.4 | 12.9 | 0.00 | 0.00 | 0.00 | 83 | 1007.0 |
| 20260506100018 | 14 | 360 | 4.8 | 11.3 | 0.00 | 0.00 | 0.00 | 83 | 1007.2 |
| 20260506094516 | 14 | 215 | 4.8 | 11.3 | 0.00 | 0.00 | 0.00 | 82 | 1007.0 |
| 20260506093014 | 14 | 196 | 4.8 | 11.3 | 0.00 | 0.00 | 0.00 | 81 | 1007.0 |
| 20260506091513 | 14 | 217 | 3.2 | 8.0 | 0.00 | 0.00 | 0.00 | 80 | 1007.0 |
| 20260506090011 | 14 | 360 | 1.6 | 9.7 | 0.00 | 0.00 | 0.00 | 80 | 1006.9 |
| 20260506084510 | 15 | 360 | 3.2 | 8.0 | 0.00 | 0.00 | 0.00 | 79 | 1007.1 |
| 20260506083016 | 15 | 232 | 4.8 | 12.9 | 0.00 | 0.00 | 0.00 | 77 | 1006.9 |